createdAt,value
2019-05-28T00:01:06.260Z,8.57
2019-05-28T00:03:36.062Z,10.73
2019-05-28T00:06:05.924Z,8.20
2019-05-28T00:08:35.724Z,7.13
2019-05-28T00:11:05.500Z,9.43
2019-05-28T00:13:35.347Z,6.30
2019-05-28T00:16:05.153Z,6.23
2019-05-28T00:18:35.009Z,6.40
2019-05-28T00:21:04.897Z,9.17
2019-05-28T00:23:34.693Z,8.80
2019-05-28T00:26:04.543Z,9.60
2019-05-28T00:28:34.311Z,7.17
2019-05-28T00:31:04.183Z,7.57
2019-05-28T00:33:34.039Z,9.13
2019-05-28T00:36:03.907Z,8.83
2019-05-28T00:38:33.686Z,8.00
2019-05-28T00:41:03.483Z,13.37
2019-05-28T00:43:33.255Z,9.17
2019-05-28T00:46:03.053Z,7.40
2019-05-28T00:48:32.832Z,9.30
2019-05-28T00:51:02.623Z,3.87
2019-05-28T00:53:32.563Z,5.53
2019-05-28T00:56:03.108Z,6.73
2019-05-28T00:58:33.412Z,7.43
2019-05-28T01:01:03.197Z,6.43
2019-05-28T01:03:32.982Z,4.83
2019-05-28T01:06:02.771Z,7.17
2019-05-28T01:08:32.644Z,7.73
2019-05-28T01:11:02.426Z,7.20
2019-05-28T01:13:32.211Z,7.87
2019-05-28T01:16:02.571Z,6.43
2019-05-28T01:18:32.379Z,11.87
2019-05-28T01:21:02.167Z,7.20
2019-05-28T01:23:31.961Z,10.50
2019-05-28T01:26:01.739Z,8.37
2019-05-28T01:28:31.523Z,6.73
2019-05-28T01:31:01.333Z,6.33
2019-05-28T01:33:31.154Z,5.70
2019-05-28T01:36:00.936Z,7.53
2019-05-28T01:38:30.718Z,7.60
2019-05-28T01:41:00.526Z,6.47
2019-05-28T01:43:30.296Z,5.03
2019-05-28T01:46:00.109Z,10.73
2019-05-28T01:48:29.884Z,7.00
2019-05-28T01:50:59.673Z,9.03
2019-05-28T01:53:29.442Z,5.83
2019-05-28T01:55:59.234Z,3.17
2019-05-28T01:58:29.012Z,5.20
2019-05-28T02:01:12.301Z,6.77
2019-05-28T02:03:30.285Z,7.97
2019-05-28T02:06:00.066Z,6.23
2019-05-28T02:08:29.846Z,6.30
2019-05-28T02:10:59.630Z,4.17
2019-05-28T02:13:29.409Z,6.87
2019-05-28T02:15:59.208Z,6.40
2019-05-28T02:18:28.980Z,6.53
2019-05-28T02:20:58.870Z,8.43
2019-05-28T02:23:28.660Z,8.73
2019-05-28T02:25:58.439Z,9.93
2019-05-28T02:28:28.236Z,7.53
2019-05-28T02:30:57.998Z,6.17
2019-05-28T02:33:27.791Z,6.13
2019-05-28T02:35:58.745Z,7.33
2019-05-28T02:38:29.211Z,8.43
2019-05-28T02:40:59.262Z,7.33
2019-05-28T02:43:29.130Z,6.10
2019-05-28T02:45:58.915Z,6.50
2019-05-28T02:48:28.686Z,7.90
2019-05-28T02:51:00.317Z,7.37
2019-05-28T02:53:31.708Z,8.97
2019-05-28T02:56:01.645Z,8.23
2019-05-28T02:58:33.552Z,8.47
2019-05-28T03:01:04.982Z,7.30
2019-05-28T03:03:35.090Z,10.40
2019-05-28T03:06:06.899Z,7.43
2019-05-28T03:08:36.738Z,8.93
2019-05-28T03:11:06.594Z,7.17
2019-05-28T03:13:36.391Z,11.37
2019-05-28T03:16:09.422Z,6.80
2019-05-28T03:18:40.136Z,8.23
2019-05-28T03:21:11.280Z,6.33
2019-05-28T03:23:42.310Z,10.03
2019-05-28T03:26:12.210Z,7.27
2019-05-28T03:28:42.052Z,12.83
2019-05-28T03:31:12.981Z,7.40
2019-05-28T03:33:42.848Z,6.70
2019-05-28T03:36:13.468Z,8.83
2019-05-28T03:38:44.865Z,5.10
2019-05-28T03:41:14.725Z,5.67
2019-05-28T03:43:44.508Z,12.67
2019-05-28T03:46:14.479Z,11.70
2019-05-28T03:48:44.276Z,7.93
2019-05-28T03:51:14.056Z,7.87
2019-05-28T03:53:43.842Z,6.83
2019-05-28T03:56:13.624Z,4.33
2019-05-28T03:58:43.408Z,6.07
2019-05-28T04:01:13.192Z,5.97
2019-05-28T04:03:45.747Z,10.13
2019-05-28T04:06:15.527Z,10.50
2019-05-28T04:08:45.314Z,9.17
2019-05-28T04:11:15.176Z,9.87
2019-05-28T04:13:44.953Z,8.63
2019-05-28T04:16:14.747Z,14.13
2019-05-28T04:18:44.526Z,9.43
2019-05-28T04:21:14.332Z,14.03
2019-05-28T04:23:44.120Z,10.97
2019-05-28T04:26:13.920Z,12.20
2019-05-28T04:28:43.704Z,7.80
2019-05-28T04:31:13.488Z,10.63
2019-05-28T04:33:43.276Z,9.27
2019-05-28T04:36:13.068Z,8.30
2019-05-28T04:38:42.839Z,8.50
2019-05-28T04:41:12.624Z,9.87
2019-05-28T04:43:42.411Z,10.13
2019-05-28T04:46:12.768Z,5.90
2019-05-28T04:48:42.560Z,15.10
2019-05-28T04:51:12.346Z,9.13
2019-05-28T04:53:42.144Z,10.07
2019-05-28T04:56:11.913Z,8.00
2019-05-28T04:58:41.721Z,9.17
2019-05-28T05:01:11.496Z,6.93
2019-05-28T05:03:41.288Z,6.73
2019-05-28T05:06:11.927Z,7.97
2019-05-28T05:08:41.726Z,9.60
2019-05-28T05:11:11.581Z,9.73
2019-05-28T05:13:41.370Z,12.40
2019-05-28T05:16:11.172Z,10.10
2019-05-28T05:18:40.968Z,11.23
2019-05-28T05:21:10.842Z,11.63
2019-05-28T05:23:40.654Z,11.27
2019-05-28T05:26:10.446Z,8.03
2019-05-28T05:28:40.252Z,6.67
2019-05-28T05:31:10.835Z,8.67
2019-05-28T05:33:40.640Z,12.30
2019-05-28T05:36:10.418Z,8.37
2019-05-28T05:38:40.216Z,10.17
2019-05-28T05:41:10.000Z,9.93
2019-05-28T05:43:39.805Z,19.67
2019-05-28T05:46:09.598Z,11.10
2019-05-28T05:48:39.460Z,7.87
2019-05-28T05:51:09.249Z,13.50
2019-05-28T05:53:39.037Z,8.57
2019-05-28T05:56:08.821Z,10.50
2019-05-28T05:58:38.608Z,8.37
2019-05-28T06:01:08.442Z,6.87
2019-05-28T06:03:40.903Z,13.43
2019-05-28T06:06:09.727Z,7.40
2019-05-28T06:08:39.585Z,10.17
2019-05-28T06:11:09.381Z,7.77
2019-05-28T06:13:39.184Z,9.30
2019-05-28T06:16:08.977Z,9.33
2019-05-28T06:18:38.763Z,7.37
2019-05-28T06:21:14.832Z,9.83
2019-05-28T06:23:40.103Z,6.93
2019-05-28T06:26:09.980Z,9.43
2019-05-28T06:28:39.764Z,8.60
2019-05-28T06:31:09.593Z,11.40
2019-05-28T06:33:53.425Z,11.10
2019-05-28T06:36:10.899Z,10.77
2019-05-28T06:38:40.732Z,9.33
2019-05-28T06:41:10.559Z,8.90
2019-05-28T06:43:40.353Z,8.87
2019-05-28T06:46:10.129Z,11.93
2019-05-28T06:48:39.934Z,9.53
2019-05-28T06:51:09.709Z,13.60
2019-05-28T06:53:39.504Z,9.93
2019-05-28T06:56:09.319Z,9.97
2019-05-28T06:58:40.388Z,13.97
2019-05-28T07:01:10.386Z,13.47
2019-05-28T07:03:40.167Z,15.07
2019-05-28T07:06:09.959Z,12.00
2019-05-28T07:08:39.756Z,13.90
2019-05-28T07:11:09.602Z,12.07
2019-05-28T07:13:39.425Z,16.33
2019-05-28T07:16:09.300Z,14.17
2019-05-28T07:18:39.198Z,13.23
2019-05-28T07:21:08.982Z,10.60
2019-05-28T07:23:38.762Z,15.73
2019-05-28T07:26:08.564Z,15.00
2019-05-28T07:28:39.434Z,12.33
2019-05-28T07:31:09.238Z,13.40
2019-05-28T07:33:39.041Z,10.43
2019-05-28T07:36:08.844Z,13.27
2019-05-28T07:38:38.628Z,12.80
2019-05-28T07:41:08.424Z,14.57
2019-05-28T07:43:38.224Z,13.20
2019-05-28T07:46:08.020Z,16.73
2019-05-28T07:48:37.818Z,14.27
2019-05-28T07:51:07.650Z,22.07
2019-05-28T07:53:40.449Z,15.03
2019-05-28T07:56:09.102Z,13.10
2019-05-28T07:58:38.985Z,16.07
2019-05-28T08:01:08.841Z,11.57
2019-05-28T08:03:38.811Z,12.77
2019-05-28T08:06:08.656Z,9.23
2019-05-28T08:08:50.506Z,10.80
2019-05-28T08:11:20.350Z,12.03
2019-05-28T08:13:52.408Z,10.90
2019-05-28T08:16:24.155Z,12.20
2019-05-28T08:18:53.203Z,11.40
2019-05-28T08:21:23.086Z,13.30
2019-05-28T08:23:52.852Z,12.17
2019-05-28T08:26:22.712Z,11.07
2019-05-28T08:28:52.498Z,13.70
2019-05-28T08:31:22.304Z,15.37
2019-05-28T08:33:52.094Z,8.67
2019-05-28T08:36:21.893Z,11.17
2019-05-28T08:38:51.673Z,13.13
2019-05-28T08:41:21.472Z,9.87
2019-05-28T08:43:51.269Z,12.03
2019-05-28T08:46:21.141Z,12.63
2019-05-28T08:48:52.003Z,9.60
2019-05-28T08:51:21.848Z,11.93
2019-05-28T08:53:51.640Z,12.47
2019-05-28T08:56:21.414Z,14.67
2019-05-28T08:58:51.220Z,11.27
2019-05-28T09:01:21.036Z,12.80
2019-05-28T09:03:50.828Z,15.53
2019-05-28T09:06:24.528Z,10.30
2019-05-28T09:08:52.113Z,13.57
2019-05-28T09:11:21.895Z,16.30
2019-05-28T09:13:51.692Z,14.97
2019-05-28T09:16:21.480Z,10.43
2019-05-28T09:18:51.351Z,13.17
2019-05-28T09:21:21.486Z,12.03
2019-05-28T09:23:51.302Z,14.77
2019-05-28T09:26:21.093Z,9.60
2019-05-28T09:28:51.599Z,14.17
2019-05-28T09:31:21.436Z,12.67
2019-05-28T09:33:51.203Z,14.33
2019-05-28T09:36:21.018Z,12.10
2019-05-28T09:38:50.859Z,7.27
2019-05-28T09:41:20.639Z,8.75
2019-05-28T09:43:50.434Z,10.13
2019-05-28T09:46:20.233Z,9.00
2019-05-28T09:48:50.003Z,11.07
2019-05-28T09:51:19.817Z,10.70
2019-05-28T09:53:49.613Z,12.27
2019-05-28T09:56:19.412Z,9.60
2019-05-28T09:58:49.192Z,11.40
2019-05-28T10:01:19.454Z,8.57
2019-05-28T10:03:49.250Z,15.13
2019-05-28T10:06:20.180Z,11.60
2019-05-28T10:08:50.052Z,8.43
2019-05-28T10:11:19.895Z,17.00
2019-05-28T10:13:49.759Z,12.13
2019-05-28T10:16:19.548Z,13.07
2019-05-28T10:18:49.354Z,11.40
2019-05-28T10:21:19.800Z,12.00
2019-05-28T10:23:49.664Z,14.07
2019-05-28T10:26:19.466Z,10.17
2019-05-28T10:28:50.530Z,11.37
2019-05-28T10:31:20.629Z,8.53
2019-05-28T10:33:50.420Z,14.03
2019-05-28T10:36:35.460Z,13.90
2019-05-28T10:38:51.707Z,10.47
2019-05-28T10:41:21.499Z,16.90
2019-05-28T10:43:51.296Z,8.17
2019-05-28T10:46:21.087Z,9.20
2019-05-28T10:48:50.861Z,11.33
2019-05-28T10:51:20.656Z,14.77
2019-05-28T10:53:50.442Z,9.97
2019-05-28T10:56:20.323Z,9.27
2019-05-28T10:58:50.132Z,11.60
2019-05-28T11:01:19.936Z,11.17
2019-05-28T11:03:49.743Z,11.20
2019-05-28T11:06:19.545Z,11.93
2019-05-28T11:08:49.336Z,7.57
2019-05-28T11:11:19.220Z,14.77
2019-05-28T11:13:53.105Z,8.10
2019-05-28T11:16:20.568Z,6.50
2019-05-28T11:18:50.350Z,5.60
2019-05-28T11:21:20.144Z,4.47
2019-05-28T11:23:49.920Z,4.17
2019-05-28T11:26:19.742Z,5.07
2019-05-28T11:28:49.494Z,6.13
2019-05-28T11:31:19.304Z,5.63
2019-05-28T11:33:50.170Z,7.30
2019-05-28T11:36:19.963Z,5.60
2019-05-28T11:38:49.808Z,3.73
2019-05-28T11:41:19.589Z,9.63
2019-05-28T11:43:49.463Z,4.07
2019-05-28T11:46:20.277Z,3.53
2019-05-28T11:48:50.068Z,5.23
2019-05-28T11:51:20.822Z,5.00
2019-05-28T11:53:50.612Z,4.30
2019-05-28T11:56:20.391Z,4.67
2019-05-28T11:58:50.191Z,4.23
2019-05-28T12:01:34.012Z,4.47
2019-05-28T12:03:51.479Z,2.93
2019-05-28T12:06:21.316Z,3.53
2019-05-28T12:08:51.197Z,5.47
2019-05-28T12:11:20.981Z,3.27
2019-05-28T12:13:50.783Z,5.10
2019-05-28T12:16:20.743Z,4.47
2019-05-28T12:18:50.528Z,3.77
2019-05-28T12:21:20.324Z,3.40
2019-05-28T12:23:50.172Z,9.27
2019-05-28T12:26:19.960Z,4.03
2019-05-28T12:28:49.812Z,2.90
2019-05-28T12:31:19.611Z,1.53
2019-05-28T12:33:49.471Z,1.23
2019-05-28T12:36:19.264Z,1.00
2019-05-28T12:38:49.039Z,2.97
2019-05-28T12:41:18.834Z,1.83
2019-05-28T12:43:48.625Z,3.00
2019-05-28T12:46:18.417Z,1.50
2019-05-28T12:48:48.199Z,2.70
2019-05-28T12:51:18.013Z,1.50
2019-05-28T12:53:50.790Z,3.13
2019-05-28T12:56:19.281Z,4.83
2019-05-28T12:58:49.075Z,2.30
2019-05-28T13:01:18.849Z,3.07
2019-05-28T13:03:51.874Z,2.37
2019-05-28T13:06:20.112Z,3.33
2019-05-28T13:08:49.907Z,2.10
2019-05-28T13:11:19.689Z,2.23
2019-05-28T13:13:49.494Z,3.27
2019-05-28T13:16:19.268Z,1.77
2019-05-28T13:18:49.063Z,1.60
2019-05-28T13:21:18.841Z,3.37
2019-05-28T13:23:48.664Z,2.87
2019-05-28T13:26:18.513Z,8.30
2019-05-28T13:28:48.286Z,3.50
2019-05-28T13:31:18.097Z,3.47
2019-05-28T13:33:47.896Z,4.20
2019-05-28T13:36:17.663Z,2.77
2019-05-28T13:38:47.536Z,1.92
2019-05-28T13:41:17.326Z,2.10
2019-05-28T13:43:47.105Z,3.05
2019-05-28T13:46:16.903Z,3.37
2019-05-28T13:48:46.679Z,2.77
2019-05-28T13:51:16.483Z,2.42
2019-05-28T13:53:46.284Z,3.30
2019-05-28T13:56:16.059Z,4.03
2019-05-28T13:58:45.845Z,2.27
2019-05-28T14:01:16.313Z,2.80
2019-05-28T14:03:46.103Z,2.72
2019-05-28T14:06:15.880Z,3.55
2019-05-28T14:08:47.546Z,2.47
2019-05-28T14:11:17.196Z,2.77
2019-05-28T14:13:47.056Z,5.50
2019-05-28T14:16:17.804Z,1.85
2019-05-28T14:18:47.599Z,2.60
2019-05-28T14:21:17.389Z,2.75
2019-05-28T14:23:47.176Z,1.95
2019-05-28T14:26:16.973Z,1.77
2019-05-28T14:28:46.746Z,2.45
2019-05-28T14:31:16.534Z,3.75
2019-05-28T14:33:46.307Z,3.10
2019-05-28T14:36:16.128Z,2.35
2019-05-28T14:39:01.267Z,1.55
2019-05-28T14:41:19.114Z,3.27
2019-05-28T14:43:48.876Z,4.25
2019-05-28T14:46:18.715Z,2.58
2019-05-28T14:48:48.512Z,3.55
2019-05-28T14:51:18.661Z,2.80
2019-05-28T14:53:48.469Z,4.72
2019-05-28T14:56:18.242Z,5.60
2019-05-28T14:58:48.032Z,4.08
2019-05-28T15:01:17.804Z,2.33
2019-05-28T15:03:47.601Z,4.67
2019-05-28T15:06:17.384Z,3.35
2019-05-28T15:08:47.213Z,2.22
2019-05-28T15:11:16.984Z,5.40
2019-05-28T15:13:46.813Z,5.40
2019-05-28T15:16:16.878Z,3.67
2019-05-28T15:18:46.675Z,6.33
2019-05-28T15:21:16.465Z,5.67
2019-05-28T15:23:46.268Z,4.47
2019-05-28T15:26:16.189Z,2.83
2019-05-28T15:28:45.970Z,3.10
2019-05-28T15:31:15.762Z,3.17
2019-05-28T15:33:45.543Z,4.12
2019-05-28T15:36:15.370Z,2.37
2019-05-28T15:38:45.125Z,3.40
2019-05-28T15:41:14.936Z,6.00
2019-05-28T15:43:44.705Z,4.67
2019-05-28T15:46:14.491Z,5.00
2019-05-28T15:48:44.312Z,3.90
2019-05-28T15:51:14.162Z,3.08
2019-05-28T15:53:44.032Z,3.33
2019-05-28T15:56:13.810Z,2.83
2019-05-28T15:58:43.600Z,2.25
2019-05-28T16:01:13.380Z,1.72
2019-05-28T16:03:43.175Z,4.15
2019-05-28T16:06:12.953Z,2.02
2019-05-28T16:08:43.718Z,2.92
2019-05-28T16:11:14.128Z,2.25
2019-05-28T16:13:44.072Z,2.50
2019-05-28T16:16:13.875Z,2.70
2019-05-28T16:18:43.675Z,2.47
2019-05-28T16:21:13.487Z,2.42
2019-05-28T16:23:43.288Z,3.25
2019-05-28T16:26:13.075Z,3.50
2019-05-28T16:28:42.847Z,2.47
2019-05-28T16:31:13.610Z,4.87
2019-05-28T16:33:43.561Z,2.83
2019-05-28T16:36:13.352Z,2.77
2019-05-28T16:38:43.197Z,3.98
2019-05-28T16:41:12.978Z,3.62
2019-05-28T16:43:42.780Z,3.27
2019-05-28T16:46:12.555Z,3.08
2019-05-28T16:48:42.347Z,2.87
2019-05-28T16:51:12.126Z,5.62
2019-05-28T16:53:41.919Z,4.00
2019-05-28T16:56:11.775Z,3.42
2019-05-28T16:58:41.564Z,3.30
2019-05-28T17:01:22.550Z,2.55
2019-05-28T17:03:42.949Z,3.52
2019-05-28T17:06:12.796Z,3.22
2019-05-28T17:08:42.661Z,3.12
2019-05-28T17:11:12.452Z,3.55
2019-05-28T17:13:47.757Z,3.52
2019-05-28T17:16:13.724Z,4.70
2019-05-28T17:18:43.513Z,2.70
2019-05-28T17:21:13.308Z,4.10
2019-05-28T17:23:44.152Z,8.05
2019-05-28T17:26:13.952Z,3.00
2019-05-28T17:28:43.920Z,6.60
2019-05-28T17:31:13.699Z,4.70
2019-05-28T17:33:43.567Z,4.17
2019-05-28T17:36:13.345Z,5.33
2019-05-28T17:38:43.120Z,5.35
2019-05-28T17:41:12.920Z,4.42
2019-05-28T17:43:42.793Z,6.93
2019-05-28T17:46:12.580Z,6.50
2019-05-28T17:48:43.082Z,6.17
2019-05-28T17:51:12.864Z,6.83
2019-05-28T17:53:42.679Z,6.73
2019-05-28T17:56:12.500Z,4.70
2019-05-28T17:58:42.349Z,4.33
2019-05-28T18:01:12.131Z,4.80
2019-05-28T18:03:41.928Z,4.00
2019-05-28T18:06:11.716Z,4.57
2019-05-28T18:08:41.600Z,4.40
2019-05-28T18:11:11.388Z,5.55
2019-05-28T18:13:41.228Z,7.20
2019-05-28T18:16:11.080Z,5.83
2019-05-28T18:18:40.876Z,6.40
2019-05-28T18:21:10.676Z,7.20
2019-05-28T18:23:40.447Z,5.63
2019-05-28T18:26:10.243Z,5.63
2019-05-28T18:28:40.037Z,5.47
2019-05-28T18:31:09.854Z,6.40
2019-05-28T18:33:39.635Z,5.60
2019-05-28T18:36:09.439Z,5.63
2019-05-28T18:38:43.544Z,5.20
2019-05-28T18:41:21.246Z,3.97
2019-05-28T18:43:42.211Z,4.10
2019-05-28T18:46:15.413Z,3.83
2019-05-28T18:48:43.585Z,4.23
2019-05-28T18:51:13.426Z,4.83
2019-05-28T18:53:43.348Z,2.50
2019-05-28T18:56:17.447Z,3.80
2019-05-28T18:58:44.628Z,2.73
2019-05-28T19:01:14.482Z,3.30
2019-05-28T19:03:44.280Z,4.37
2019-05-28T19:06:14.087Z,4.20
2019-05-28T19:08:43.868Z,3.87
2019-05-28T19:11:13.767Z,4.30
2019-05-28T19:13:44.736Z,6.07
2019-05-28T19:16:14.528Z,5.70
2019-05-28T19:18:44.314Z,6.13
2019-05-28T19:21:14.103Z,8.07
2019-05-28T19:23:43.885Z,5.40
2019-05-28T19:26:13.686Z,7.67
2019-05-28T19:28:43.459Z,5.70
2019-05-28T19:31:13.336Z,11.50
2019-05-28T19:33:43.125Z,7.90
2019-05-28T19:36:13.565Z,6.77
2019-05-28T19:38:45.839Z,6.87
2019-05-28T19:41:15.200Z,8.00
2019-05-28T19:43:45.059Z,6.90
2019-05-28T19:46:14.925Z,8.77
2019-05-28T19:48:44.738Z,7.20
2019-05-28T19:51:14.531Z,8.67
2019-05-28T19:53:44.319Z,7.87
2019-05-28T19:56:14.097Z,9.97
2019-05-28T19:58:43.880Z,8.20
2019-05-28T20:01:13.681Z,7.00
2019-05-28T20:03:43.615Z,7.13
2019-05-28T20:06:13.401Z,7.53
2019-05-28T20:08:43.191Z,7.23
2019-05-28T20:11:12.975Z,7.93
2019-05-28T20:13:42.814Z,10.50
2019-05-28T20:16:12.604Z,7.47
2019-05-28T20:18:42.375Z,6.60
2019-05-28T20:21:12.175Z,8.83
2019-05-28T20:23:41.952Z,7.03
2019-05-28T20:26:11.748Z,8.13
2019-05-28T20:28:41.543Z,7.07
2019-05-28T20:31:11.405Z,6.37
2019-05-28T20:33:41.189Z,7.87
2019-05-28T20:36:11.062Z,8.40
2019-05-28T20:38:40.895Z,9.17
2019-05-28T20:41:10.699Z,9.73
2019-05-28T20:43:40.532Z,8.35
2019-05-28T20:46:10.689Z,6.92
2019-05-28T20:48:40.625Z,6.10
2019-05-28T20:51:21.078Z,9.97
2019-05-28T20:53:41.892Z,6.00
2019-05-28T20:56:11.692Z,10.17
2019-05-28T20:58:41.481Z,7.03
2019-05-28T21:01:11.400Z,7.07
2019-05-28T21:03:41.372Z,8.00
2019-05-28T21:06:11.156Z,6.57
2019-05-28T21:08:40.935Z,4.43
2019-05-28T21:11:10.755Z,5.60
2019-05-28T21:13:40.596Z,5.33
2019-05-28T21:16:10.465Z,7.63
2019-05-28T21:18:40.253Z,7.40
2019-05-28T21:21:10.049Z,6.03
2019-05-28T21:23:39.837Z,7.20
2019-05-28T21:26:10.700Z,7.60
2019-05-28T21:28:40.466Z,8.03
2019-05-28T21:31:10.268Z,6.83
2019-05-28T21:33:40.060Z,7.00
2019-05-28T21:36:09.844Z,9.33
2019-05-28T21:38:39.636Z,7.63
2019-05-28T21:41:09.412Z,8.03
2019-05-28T21:43:39.200Z,8.53
2019-05-28T21:46:08.984Z,6.30
2019-05-28T21:48:38.792Z,6.37
2019-05-28T21:51:08.642Z,8.30
2019-05-28T21:53:38.430Z,9.37
2019-05-28T21:56:08.222Z,9.23
2019-05-28T21:58:38.053Z,10.20
2019-05-28T22:01:22.927Z,12.23
2019-05-28T22:03:52.724Z,6.53
2019-05-28T22:06:22.499Z,5.87
2019-05-28T22:08:52.307Z,8.40
2019-05-28T22:11:22.177Z,8.23
2019-05-28T22:13:51.959Z,6.50
2019-05-28T22:16:21.757Z,6.47
2019-05-28T22:18:51.572Z,8.07
2019-05-28T22:21:21.413Z,7.17
2019-05-28T22:23:51.195Z,8.47
2019-05-28T22:26:20.986Z,7.33
2019-05-28T22:28:50.771Z,5.87
2019-05-28T22:31:20.558Z,7.07
2019-05-28T22:33:50.340Z,8.00
2019-05-28T22:36:20.140Z,7.80
2019-05-28T22:39:09.139Z,7.43
2019-05-28T22:41:41.356Z,6.57
2019-05-28T22:44:11.123Z,8.37
2019-05-28T22:46:40.927Z,7.90
2019-05-28T22:49:10.736Z,10.00
2019-05-28T22:51:40.512Z,6.40
2019-05-28T22:54:10.298Z,5.70
2019-05-28T22:56:41.143Z,8.57
2019-05-28T22:59:10.991Z,6.87
2019-05-28T23:01:40.824Z,11.00
2019-05-28T23:04:10.614Z,6.87
2019-05-28T23:06:40.392Z,5.67
2019-05-28T23:09:10.166Z,5.60
2019-05-28T23:11:39.994Z,9.60
2019-05-28T23:14:10.876Z,6.07
2019-05-28T23:16:41.638Z,7.13
2019-05-28T23:19:11.490Z,5.10
2019-05-28T23:21:41.379Z,7.90
2019-05-28T23:24:11.399Z,5.23
2019-05-28T23:26:41.350Z,7.13
2019-05-28T23:29:12.025Z,6.67
2019-05-28T23:31:42.010Z,6.43
2019-05-28T23:34:12.626Z,7.33
2019-05-28T23:36:43.292Z,9.20
2019-05-28T23:39:13.246Z,9.10
2019-05-28T23:41:44.279Z,8.20
2019-05-28T23:44:14.051Z,4.83
2019-05-28T23:46:44.815Z,6.53
2019-05-28T23:49:14.603Z,5.40
2019-05-28T23:51:44.389Z,7.67
2019-05-28T23:54:14.197Z,4.00
2019-05-28T23:56:43.982Z,7.63
2019-05-28T23:59:13.972Z,9.97
